Terminal Aerodrome Forecast
Issued by NWS Sterling, VA

Current Version | Previous Version | Text Only | Print | Product List | Glossary On
Versions: 1 2 3 4 5 6 7 8 9 10 11 12 13 14 15 16
493
FTUS41 KLWX 031726
TAFMRB
TAF
KMRB 031726Z 0318/0418 19009KT 1/4SM RA FG OVC002
     FM032100 23005KT 3SM BR OVC015
     FM040300 30006KT P6SM BKN090=

USA.gov is the U.S. government's official web portal to all federal, state and local government web resources and services.